createdAt,value
2022-12-23T00:04:11.830Z,9.75
2022-12-23T00:09:11.679Z,9.72
2022-12-23T00:14:18.212Z,9.76
2022-12-23T00:19:11.542Z,9.80
2022-12-23T00:24:11.486Z,9.84
2022-12-23T00:29:11.411Z,9.83
2022-12-23T00:34:11.343Z,9.84
2022-12-23T00:39:11.277Z,9.84
2022-12-23T00:44:11.209Z,9.80
2022-12-23T00:49:11.159Z,9.75
2022-12-23T00:54:11.068Z,9.75
2022-12-23T00:59:11.017Z,9.80
2022-12-23T01:04:10.940Z,9.82
2022-12-23T01:09:10.881Z,9.82
2022-12-23T01:14:10.807Z,9.79
2022-12-23T01:19:10.751Z,9.79
2022-12-23T01:24:10.689Z,9.84
2022-12-23T01:29:10.617Z,9.89
2022-12-23T01:34:10.555Z,9.94
2022-12-23T01:39:10.485Z,9.95
2022-12-23T01:44:10.410Z,9.97
2022-12-23T01:49:10.349Z,9.95
2022-12-23T01:54:10.278Z,9.94
2022-12-23T01:59:10.217Z,9.91
2022-12-23T02:04:10.142Z,9.86
2022-12-23T02:09:10.086Z,9.86
2022-12-23T02:14:10.019Z,9.82
2022-12-23T02:19:09.951Z,9.80
2022-12-23T02:24:09.878Z,9.79
2022-12-23T02:29:09.826Z,9.80
2022-12-23T02:34:09.748Z,9.87
2022-12-23T02:39:09.689Z,9.83
2022-12-23T02:44:09.615Z,9.82
2022-12-23T02:49:09.553Z,9.82
2022-12-23T02:54:09.482Z,9.82
2022-12-23T02:59:09.423Z,9.80
2022-12-23T03:04:09.347Z,9.79
2022-12-23T03:09:09.327Z,9.79
2022-12-23T03:14:09.215Z,9.73
2022-12-23T03:19:09.162Z,9.71
2022-12-23T03:24:09.081Z,9.63
2022-12-23T03:29:09.053Z,9.57
2022-12-23T03:34:08.948Z,9.55
2022-12-23T03:39:08.888Z,9.58
2022-12-23T03:44:08.831Z,9.60
2022-12-23T03:49:08.761Z,9.60
2022-12-23T03:54:08.699Z,9.58
2022-12-23T03:59:08.630Z,9.55
2022-12-23T04:04:08.606Z,9.53
2022-12-23T04:09:08.521Z,9.49
2022-12-23T04:14:08.420Z,9.46
2022-12-23T04:19:08.367Z,9.47
2022-12-23T04:24:08.287Z,9.47
2022-12-23T04:29:08.234Z,9.46
2022-12-23T04:34:08.159Z,9.46
2022-12-23T04:39:08.079Z,9.47
2022-12-23T04:44:08.036Z,9.50
2022-12-23T04:49:07.949Z,9.57
2022-12-23T04:54:07.896Z,9.60
2022-12-23T04:59:07.820Z,9.64
2022-12-23T05:04:07.758Z,9.68
2022-12-23T05:09:07.689Z,9.75
2022-12-23T05:14:07.625Z,9.79
2022-12-23T05:19:07.551Z,9.75
2022-12-23T05:24:07.494Z,9.75
2022-12-23T05:29:07.453Z,9.75
2022-12-23T05:34:07.395Z,9.79
2022-12-23T05:39:07.300Z,9.84
2022-12-23T05:44:07.238Z,9.92
2022-12-23T05:49:07.154Z,9.98
2022-12-23T05:54:07.107Z,9.98
2022-12-23T05:59:07.021Z,10.02
2022-12-23T06:04:07.079Z,10.02
2022-12-23T06:09:06.893Z,10.01
2022-12-23T06:14:06.838Z,10.01
2022-12-23T06:19:06.752Z,9.99
2022-12-23T06:24:06.696Z,9.92
2022-12-23T06:29:06.618Z,9.91
2022-12-23T06:34:06.577Z,9.92
2022-12-23T06:39:06.500Z,9.94
2022-12-23T06:44:06.424Z,9.94
2022-12-23T06:49:12.866Z,9.94
2022-12-23T06:54:06.305Z,10.02
2022-12-23T06:59:06.221Z,10.20
2022-12-23T07:04:06.171Z,10.34
2022-12-23T07:09:06.093Z,10.28
2022-12-23T07:14:06.034Z,10.19
2022-12-23T07:19:05.958Z,10.16
2022-12-23T07:24:05.900Z,10.19
2022-12-23T07:29:05.825Z,10.25
2022-12-23T07:34:05.768Z,10.28
2022-12-23T07:39:05.702Z,10.30
2022-12-23T07:44:05.628Z,10.33
2022-12-23T07:49:05.557Z,10.38
2022-12-23T07:54:05.504Z,10.38
2022-12-23T07:59:05.423Z,10.46
2022-12-23T08:04:05.363Z,10.59
2022-12-23T08:09:05.306Z,10.71
2022-12-23T08:14:05.225Z,10.78
2022-12-23T08:19:05.182Z,10.89
2022-12-23T08:24:05.081Z,11.04
2022-12-23T08:29:05.081Z,11.16
2022-12-23T08:34:04.953Z,11.45
2022-12-23T08:39:04.892Z,13.56
2022-12-23T08:44:04.835Z,12.68
2022-12-23T08:49:04.760Z,12.97
2022-12-23T08:54:04.694Z,12.70
2022-12-23T08:59:04.622Z,12.31
2022-12-23T09:04:04.674Z,12.09
2022-12-23T09:09:04.489Z,12.05
2022-12-23T09:14:04.426Z,12.06
2022-12-23T09:19:04.359Z,14.68
2022-12-23T09:24:04.300Z,14.37
2022-12-23T09:29:04.221Z,14.81
2022-12-23T09:34:04.154Z,13.36
2022-12-23T09:39:04.124Z,12.72
2022-12-23T09:44:04.013Z,12.23
2022-12-23T09:49:03.955Z,12.03
2022-12-23T09:54:03.879Z,12.02
2022-12-23T09:59:03.831Z,12.02
2022-12-23T10:04:03.821Z,12.06
2022-12-23T10:09:03.685Z,12.14
2022-12-23T10:14:03.608Z,12.17
2022-12-23T10:19:03.547Z,12.12
2022-12-23T10:24:03.682Z,12.08
2022-12-23T10:29:03.419Z,12.19
2022-12-23T10:34:03.348Z,12.24
2022-12-23T10:39:03.281Z,12.45
2022-12-23T10:44:03.212Z,12.39
2022-12-23T10:49:03.146Z,12.39
2022-12-23T10:54:03.070Z,12.39
2022-12-23T10:59:03.019Z,12.38
2022-12-23T11:04:02.936Z,12.35
2022-12-23T11:09:02.902Z,12.36
2022-12-23T11:14:02.814Z,12.35
2022-12-23T11:19:02.757Z,12.26
2022-12-23T11:24:02.687Z,12.14
2022-12-23T11:29:02.636Z,12.03
2022-12-23T11:34:02.536Z,11.99
2022-12-23T11:39:02.498Z,11.98
2022-12-23T11:44:02.425Z,11.99
2022-12-23T11:49:02.346Z,12.01
2022-12-23T11:54:02.294Z,12.02
2022-12-23T11:59:02.208Z,12.01
2022-12-23T12:04:02.272Z,12.01
2022-12-23T12:09:02.084Z,12.02
2022-12-23T12:14:02.003Z,12.05
2022-12-23T12:19:01.968Z,12.14
2022-12-23T12:24:18.371Z,12.14
2022-12-23T12:29:02.845Z,12.05
2022-12-23T12:34:01.740Z,11.94
2022-12-23T12:39:01.687Z,11.88
2022-12-23T12:44:01.603Z,11.83
2022-12-23T12:49:01.553Z,11.80
2022-12-23T12:54:05.604Z,11.81
2022-12-23T12:59:01.422Z,11.80
2022-12-23T13:04:01.332Z,11.78
2022-12-23T13:09:01.304Z,11.72
2022-12-23T13:14:01.206Z,11.69
2022-12-23T13:19:01.151Z,11.66
2022-12-23T13:24:04.186Z,11.65
2022-12-23T13:29:01.037Z,11.65
2022-12-23T13:34:00.935Z,11.62
2022-12-23T13:39:00.898Z,11.62
2022-12-23T13:44:00.798Z,11.65
2022-12-23T13:49:00.773Z,11.66
2022-12-23T13:54:04.579Z,11.65
2022-12-23T13:59:00.616Z,11.65
2022-12-23T14:04:00.558Z,11.63
2022-12-23T14:09:00.476Z,11.57
2022-12-23T14:14:00.468Z,11.50
2022-12-23T14:19:00.360Z,11.43
2022-12-23T14:24:04.279Z,11.40
2022-12-23T14:29:00.218Z,11.33
2022-12-23T14:34:00.135Z,11.25
2022-12-23T14:39:00.118Z,11.13
2022-12-23T14:44:00.033Z,11.04
2022-12-23T14:49:29.995Z,10.93
2022-12-23T14:54:00.901Z,10.86
2022-12-23T14:58:59.821Z,10.77
2022-12-23T15:04:01.858Z,10.71
2022-12-23T15:08:59.689Z,10.66
2022-12-23T15:13:59.605Z,10.63
2022-12-23T15:18:59.548Z,10.66
2022-12-23T15:23:59.471Z,10.67
2022-12-23T15:28:59.413Z,10.67
2022-12-23T15:34:04.614Z,10.70
2022-12-23T15:38:59.285Z,10.73
2022-12-23T15:43:59.207Z,10.74
2022-12-23T15:48:59.151Z,10.73
2022-12-23T15:53:59.071Z,10.71
2022-12-23T15:58:59.017Z,10.68
2022-12-23T16:03:59.035Z,10.66
2022-12-23T16:08:58.912Z,10.62
2022-12-23T16:13:59.304Z,10.58
2022-12-23T16:18:58.752Z,10.48
2022-12-23T16:23:58.681Z,10.38
2022-12-23T16:28:58.614Z,10.30
2022-12-23T16:33:58.553Z,10.23
2022-12-23T16:38:58.480Z,10.19
2022-12-23T16:43:58.413Z,10.13
2022-12-23T16:48:58.343Z,10.07
2022-12-23T16:53:58.333Z,10.01
2022-12-23T16:58:58.208Z,9.98
2022-12-23T17:03:58.141Z,9.95
2022-12-23T17:08:58.074Z,9.91
2022-12-23T17:14:04.146Z,9.86
2022-12-23T17:18:57.944Z,9.80
2022-12-23T17:23:57.870Z,9.80
2022-12-23T17:28:57.805Z,9.75
2022-12-23T17:33:57.734Z,9.73
2022-12-23T17:38:57.678Z,9.76
2022-12-23T17:43:57.617Z,9.79
2022-12-23T17:48:57.542Z,9.79
2022-12-23T17:53:58.331Z,9.80
2022-12-23T17:58:57.412Z,9.75
2022-12-23T18:03:57.345Z,9.73
2022-12-23T18:08:57.285Z,9.73
2022-12-23T18:13:57.223Z,9.75
2022-12-23T18:18:57.151Z,9.80
2022-12-23T18:23:57.069Z,9.83
2022-12-23T18:28:57.010Z,9.82
2022-12-23T18:33:56.939Z,9.80
2022-12-23T18:38:56.882Z,9.76
2022-12-23T18:43:56.819Z,9.79
2022-12-23T18:48:56.753Z,9.75
2022-12-23T18:53:56.681Z,9.75
2022-12-23T18:58:56.616Z,9.75
2022-12-23T19:03:56.554Z,9.75
2022-12-23T19:08:56.506Z,9.75
2022-12-23T19:13:56.442Z,9.80
2022-12-23T19:18:56.354Z,9.82
2022-12-23T19:23:56.292Z,9.86
2022-12-23T19:28:56.217Z,9.89
2022-12-23T19:33:56.155Z,9.91
2022-12-23T19:38:56.085Z,9.91
2022-12-23T19:43:56.012Z,9.92
2022-12-23T19:48:55.957Z,9.94
2022-12-23T19:53:55.887Z,10.02
2022-12-23T19:58:55.820Z,10.09
2022-12-23T20:03:55.759Z,10.09
2022-12-23T20:09:00.267Z,10.09
2022-12-23T20:13:55.615Z,10.15
2022-12-23T20:18:55.558Z,10.26
2022-12-23T20:23:55.494Z,10.37
2022-12-23T20:28:55.425Z,10.41
2022-12-23T20:33:55.362Z,10.44
2022-12-23T20:38:55.292Z,10.42
2022-12-23T20:48:56.190Z,10.48
2022-12-23T20:53:55.105Z,10.49
2022-12-23T20:58:55.075Z,10.48
2022-12-23T21:03:54.954Z,10.55
2022-12-23T21:08:54.905Z,10.60
2022-12-23T21:13:54.826Z,10.60
2022-12-23T21:18:54.771Z,10.62
2022-12-23T21:23:54.685Z,10.71
2022-12-23T21:28:54.641Z,10.73
2022-12-23T21:33:54.553Z,10.71
2022-12-23T21:38:54.500Z,10.73
2022-12-23T21:43:54.412Z,10.74
2022-12-23T21:48:54.353Z,10.75
2022-12-23T21:53:54.283Z,10.74
2022-12-23T21:58:54.221Z,10.73
2022-12-23T22:03:54.144Z,10.71
2022-12-23T22:08:54.085Z,10.71
2022-12-23T22:13:54.016Z,10.75
2022-12-23T22:18:53.971Z,10.85
2022-12-23T22:23:53.872Z,10.96
2022-12-23T22:28:53.848Z,10.96
2022-12-23T22:33:53.737Z,11.07
2022-12-23T22:38:53.689Z,11.18
2022-12-23T22:43:53.609Z,11.17
2022-12-23T22:48:53.557Z,11.16
2022-12-23T22:53:53.474Z,11.10
2022-12-23T22:58:53.457Z,11.07
2022-12-23T23:03:53.340Z,11.03
2022-12-23T23:08:53.282Z,10.99
2022-12-23T23:13:53.206Z,10.95
2022-12-23T23:18:53.145Z,10.96
2022-12-23T23:23:53.096Z,10.95
2022-12-23T23:28:53.014Z,10.95
2022-12-23T23:33:52.943Z,10.92
2022-12-23T23:38:52.876Z,10.89
2022-12-23T23:43:52.804Z,10.85
2022-12-23T23:48:52.759Z,10.78
2022-12-23T23:53:52.668Z,10.73
2022-12-23T23:58:52.610Z,10.70
